createdAt,value
2018-11-07T00:00:05.529Z,15.60
2018-11-07T00:01:40.810Z,19.40
2018-11-07T00:03:24.576Z,20.80
2018-11-07T00:05:01.386Z,15.20
2018-11-07T00:06:40.301Z,17.20
2018-11-07T00:08:18.200Z,16.40
2018-11-07T00:10:00.271Z,17.20
2018-11-07T00:11:38.622Z,15.60
2018-11-07T00:13:14.828Z,16.40
2018-11-07T00:14:51.658Z,18.00
2018-11-07T00:16:27.900Z,22.80
2018-11-07T00:18:17.491Z,16.40
2018-11-07T00:19:53.400Z,21.80
2018-11-07T00:21:32.304Z,28.00
2018-11-07T00:23:08.772Z,21.40
2018-11-07T00:24:45.218Z,16.60
2018-11-07T00:26:21.128Z,22.80
2018-11-07T00:27:57.019Z,19.80
2018-11-07T00:29:32.915Z,21.40
2018-11-07T00:31:09.635Z,16.20
2018-11-07T00:32:46.086Z,22.00
2018-11-07T00:34:23.745Z,21.80
2018-11-07T00:35:59.772Z,20.20
2018-11-07T00:37:36.196Z,19.80
2018-11-07T00:39:16.879Z,13.20
2018-11-07T00:40:56.396Z,19.00
2018-11-07T00:42:32.754Z,19.40
2018-11-07T00:44:11.187Z,19.60
2018-11-07T00:45:46.543Z,18.60
2018-11-07T00:47:21.975Z,23.40
2018-11-07T00:49:02.607Z,14.60
2018-11-07T00:50:37.804Z,19.00
2018-11-07T00:52:15.299Z,26.00
2018-11-07T00:53:54.449Z,18.00
2018-11-07T00:55:31.644Z,18.60
2018-11-07T00:57:07.710Z,21.80
2018-11-07T00:58:54.334Z,25.20
2018-11-07T01:00:33.535Z,18.40
2018-11-07T01:02:12.311Z,20.80
2018-11-07T01:03:53.000Z,22.60
2018-11-07T01:05:39.593Z,22.00
2018-11-07T01:07:20.697Z,21.40
2018-11-07T01:09:03.726Z,16.80
2018-11-07T01:10:50.430Z,13.40
2018-11-07T01:12:35.020Z,21.00
2018-11-07T01:14:19.847Z,22.40
2018-11-07T01:15:55.550Z,18.60
2018-11-07T01:17:30.711Z,21.00
2018-11-07T01:19:07.269Z,15.20
2018-11-07T01:20:44.411Z,19.80
2018-11-07T01:22:19.740Z,14.60
2018-11-07T01:24:02.124Z,16.80
2018-11-07T01:25:39.485Z,18.40
2018-11-07T01:27:21.539Z,15.40
2018-11-07T01:28:58.011Z,18.80
2018-11-07T01:30:36.007Z,15.60
2018-11-07T01:32:30.544Z,17.20
2018-11-07T01:34:15.130Z,18.40
2018-11-07T01:35:53.980Z,16.80
2018-11-07T01:37:33.782Z,12.20
2018-11-07T01:39:15.809Z,19.80
2018-11-07T01:41:06.441Z,14.60
2018-11-07T01:42:46.284Z,13.40
2018-11-07T01:44:26.259Z,12.80
2018-11-07T01:46:11.797Z,20.60
2018-11-07T01:47:51.704Z,12.40
2018-11-07T01:49:28.855Z,13.40
2018-11-07T01:51:04.543Z,16.60
2018-11-07T01:52:45.092Z,12.40
2018-11-07T01:54:22.066Z,18.00
2018-11-07T01:56:05.706Z,16.00
2018-11-07T01:57:46.380Z,16.40
2018-11-07T01:59:29.018Z,16.00
2018-11-07T02:01:04.391Z,19.00
2018-11-07T02:02:44.591Z,17.40
2018-11-07T02:04:24.291Z,20.00
2018-11-07T02:06:00.270Z,18.40
2018-11-07T02:07:40.161Z,18.60
2018-11-07T02:09:17.283Z,6.80
2018-11-07T02:10:56.218Z,12.60
2018-11-07T02:12:31.553Z,15.20
2018-11-07T02:14:22.107Z,15.20
2018-11-07T02:15:57.608Z,16.00
2018-11-07T02:17:35.123Z,15.80
2018-11-07T02:19:12.077Z,13.80
2018-11-07T02:20:48.928Z,17.60
2018-11-07T02:23:29.914Z,16.40
2018-11-07T02:25:13.400Z,16.40
2018-11-07T02:26:49.784Z,15.40
2018-11-07T02:28:35.978Z,13.80
2018-11-07T02:30:17.995Z,10.40
2018-11-07T02:31:56.065Z,15.60
2018-11-07T02:33:38.698Z,12.20
2018-11-07T02:35:17.647Z,12.00
2018-11-07T02:37:03.122Z,9.60
2018-11-07T02:38:44.125Z,8.60
2018-11-07T02:40:22.271Z,5.20
2018-11-07T02:42:00.978Z,14.60
2018-11-07T02:45:28.324Z,15.00
2018-11-07T02:47:09.544Z,13.00
2018-11-07T02:48:45.429Z,15.00
2018-11-07T02:50:21.643Z,6.00
2018-11-07T02:51:59.320Z,12.80
2018-11-07T02:53:43.026Z,12.60
2018-11-07T02:55:25.624Z,15.40
2018-11-07T02:57:05.455Z,13.60
2018-11-07T02:58:41.183Z,14.60
2018-11-07T03:00:22.521Z,12.60
2018-11-07T03:02:15.708Z,9.80
2018-11-07T03:03:53.338Z,13.00
2018-11-07T03:05:34.343Z,12.80
2018-11-07T03:07:15.625Z,12.80
2018-11-07T03:08:51.370Z,9.40
2018-11-07T03:10:31.645Z,18.00
2018-11-07T03:12:07.935Z,12.20
2018-11-07T03:13:44.182Z,12.60
2018-11-07T03:15:19.793Z,6.80
2018-11-07T03:16:54.751Z,9.80
2018-11-07T03:18:31.415Z,12.80
2018-11-07T03:20:08.949Z,15.00
2018-11-07T03:21:48.547Z,13.00
2018-11-07T03:23:25.111Z,11.60
2018-11-07T03:25:01.134Z,15.00
2018-11-07T03:26:37.118Z,10.00
2018-11-07T03:28:14.846Z,10.40
2018-11-07T03:29:58.767Z,10.00
2018-11-07T03:31:37.243Z,12.00
2018-11-07T03:33:12.651Z,14.20
2018-11-07T03:34:48.476Z,10.00
2018-11-07T03:36:23.779Z,10.00
2018-11-07T03:37:59.225Z,17.60
2018-11-07T03:39:35.375Z,10.00
2018-11-07T03:41:13.067Z,11.60
2018-11-07T03:42:48.599Z,9.20
2018-11-07T03:44:23.863Z,14.00
2018-11-07T03:45:59.381Z,10.40
2018-11-07T03:47:34.671Z,10.80
2018-11-07T03:49:10.195Z,11.80
2018-11-07T03:50:45.307Z,10.00
2018-11-07T03:52:23.818Z,12.00
2018-11-07T03:53:58.889Z,4.80
2018-11-07T03:55:34.891Z,13.00
2018-11-07T03:57:19.403Z,10.00
2018-11-07T03:58:58.373Z,10.80
2018-11-07T04:00:33.546Z,11.20
2018-11-07T04:02:11.937Z,10.00
2018-11-07T04:03:47.364Z,14.20
2018-11-07T04:05:23.182Z,6.80
2018-11-07T04:07:01.315Z,9.00
2018-11-07T04:08:37.450Z,9.40
2018-11-07T04:10:12.514Z,8.00
2018-11-07T04:11:48.106Z,10.20
2018-11-07T04:13:23.121Z,9.00
2018-11-07T04:14:58.428Z,13.00
2018-11-07T04:16:35.441Z,6.40
2018-11-07T04:18:10.570Z,7.80
2018-11-07T04:19:47.121Z,6.80
2018-11-07T04:21:33.090Z,6.80
2018-11-07T04:23:24.837Z,9.00
2018-11-07T04:25:11.755Z,9.60
2018-11-07T04:26:47.329Z,9.20
2018-11-07T04:28:22.717Z,10.40
2018-11-07T04:30:04.271Z,11.60
2018-11-07T04:31:41.261Z,8.20
2018-11-07T04:33:17.148Z,10.00
2018-11-07T04:34:52.478Z,8.20
2018-11-07T04:36:27.818Z,8.20
2018-11-07T04:38:03.053Z,9.80
2018-11-07T04:39:38.483Z,9.20
2018-11-07T04:41:14.339Z,9.60
2018-11-07T04:42:49.624Z,9.20
2018-11-07T04:44:24.847Z,10.80
2018-11-07T04:45:59.807Z,9.00
2018-11-07T04:47:38.038Z,7.00
2018-11-07T04:49:14.027Z,9.60
2018-11-07T04:50:53.910Z,9.00
2018-11-07T04:52:30.705Z,9.40
2018-11-07T04:54:06.456Z,7.00
2018-11-07T04:55:43.556Z,9.00
2018-11-07T04:57:19.633Z,10.80
2018-11-07T04:58:54.637Z,7.80
2018-11-07T05:00:30.927Z,8.60
2018-11-07T05:02:06.945Z,11.60
2018-11-07T05:03:42.189Z,13.20
2018-11-07T05:05:18.164Z,8.80
2018-11-07T05:06:53.182Z,16.60
2018-11-07T05:08:28.373Z,12.20
2018-11-07T05:10:08.102Z,10.80
2018-11-07T05:12:04.154Z,12.40
2018-11-07T05:13:39.407Z,8.80
2018-11-07T05:15:17.351Z,9.80
2018-11-07T05:16:54.185Z,7.00
2018-11-07T05:18:29.609Z,12.60
2018-11-07T05:20:06.594Z,11.60
2018-11-07T05:21:41.610Z,10.80
2018-11-07T05:23:16.687Z,10.80
2018-11-07T05:24:53.310Z,7.20
2018-11-07T05:26:29.039Z,6.20
2018-11-07T05:28:07.297Z,7.00
2018-11-07T05:29:43.167Z,15.20
2018-11-07T05:31:18.106Z,8.20
2018-11-07T05:32:53.707Z,9.60
2018-11-07T05:34:30.935Z,6.20
2018-11-07T05:36:06.358Z,6.40
2018-11-07T05:37:41.494Z,8.60
2018-11-07T05:39:22.913Z,10.00
2018-11-07T05:40:59.614Z,8.60
2018-11-07T05:42:37.963Z,5.60
2018-11-07T05:44:13.699Z,10.20
2018-11-07T05:45:48.904Z,7.40
2018-11-07T05:47:27.219Z,4.00
2018-11-07T05:49:03.581Z,7.40
2018-11-07T05:50:38.563Z,6.80
2018-11-07T05:52:14.810Z,5.80
2018-11-07T05:53:49.834Z,5.20
2018-11-07T05:55:25.534Z,6.20
2018-11-07T05:57:09.259Z,5.80
2018-11-07T05:58:51.446Z,6.20
2018-11-07T06:00:27.041Z,6.80
2018-11-07T06:02:02.705Z,6.60
2018-11-07T06:03:38.035Z,9.00
2018-11-07T06:05:14.406Z,5.60
2018-11-07T06:06:50.523Z,5.60
2018-11-07T06:08:33.035Z,6.80
2018-11-07T06:10:10.366Z,4.40
2018-11-07T06:11:46.840Z,6.60
2018-11-07T06:13:24.052Z,5.60
2018-11-07T06:15:02.460Z,7.00
2018-11-07T06:16:37.811Z,4.00
2018-11-07T06:18:12.797Z,8.60
2018-11-07T06:19:57.116Z,7.40
2018-11-07T06:21:34.922Z,6.00
2018-11-07T06:23:15.222Z,4.40
2018-11-07T06:24:54.185Z,4.80
2018-11-07T06:26:30.037Z,7.00
2018-11-07T06:28:05.987Z,4.80
2018-11-07T06:29:42.916Z,4.80
2018-11-07T06:31:20.123Z,0.00
2018-11-07T06:32:55.415Z,7.00
2018-11-07T06:34:32.348Z,5.20
2018-11-07T06:36:12.550Z,6.00
2018-11-07T06:37:49.782Z,6.00
2018-11-07T06:39:24.721Z,3.60
2018-11-07T06:40:59.842Z,3.80
2018-11-07T06:42:36.490Z,5.60
2018-11-07T06:44:13.099Z,5.60
2018-11-07T06:45:53.318Z,3.00
2018-11-07T06:47:32.053Z,3.00
2018-11-07T06:49:13.579Z,5.20
2018-11-07T06:50:49.622Z,1.00
2018-11-07T06:52:26.507Z,3.00
2018-11-07T06:54:03.465Z,4.00
2018-11-07T06:55:39.273Z,3.40
2018-11-07T06:57:14.575Z,4.00
2018-11-07T06:58:53.163Z,5.20
2018-11-07T07:00:29.511Z,4.00
2018-11-07T07:02:07.592Z,4.00
2018-11-07T07:03:44.647Z,2.60
2018-11-07T07:05:19.849Z,3.00
2018-11-07T07:07:01.223Z,3.20
2018-11-07T07:08:38.286Z,1.00
2018-11-07T07:10:16.528Z,3.00
2018-11-07T07:11:52.636Z,4.00
2018-11-07T07:13:28.037Z,4.00
2018-11-07T07:15:15.714Z,5.60
2018-11-07T07:16:52.430Z,3.40
2018-11-07T07:18:31.861Z,3.80
2018-11-07T07:20:25.298Z,6.20
2018-11-07T07:22:09.397Z,2.60
2018-11-07T07:23:47.674Z,4.00
2018-11-07T07:25:26.149Z,5.20
2018-11-07T07:27:02.126Z,3.40
2018-11-07T07:28:40.081Z,4.00
2018-11-07T07:30:18.588Z,6.00
2018-11-07T07:31:59.101Z,4.00
2018-11-07T07:33:36.595Z,4.00
2018-11-07T07:35:12.769Z,6.60
2018-11-07T07:36:51.560Z,9.60
2018-11-07T07:38:26.853Z,7.40
2018-11-07T07:40:11.307Z,7.40
2018-11-07T07:41:52.869Z,9.00
2018-11-07T07:43:28.915Z,8.20
2018-11-07T07:45:12.201Z,1.40
2018-11-07T07:46:48.276Z,6.40
2018-11-07T07:48:24.433Z,6.20
2018-11-07T07:50:01.300Z,6.60
2018-11-07T07:51:39.564Z,7.00
2018-11-07T07:53:16.872Z,6.00
2018-11-07T07:54:52.091Z,7.40
2018-11-07T07:56:27.558Z,9.80
2018-11-07T07:58:06.230Z,6.80
2018-11-07T07:59:44.639Z,6.40
2018-11-07T08:01:25.198Z,7.00
2018-11-07T08:03:01.505Z,9.60
2018-11-07T08:04:43.712Z,8.80
2018-11-07T08:06:19.573Z,7.80
2018-11-07T08:07:56.701Z,9.00
2018-11-07T08:09:34.005Z,7.80
2018-11-07T08:11:12.366Z,7.00
2018-11-07T08:12:52.439Z,6.40
2018-11-07T08:14:31.747Z,5.20
2018-11-07T08:16:09.510Z,5.60
2018-11-07T08:17:47.361Z,4.00
2018-11-07T08:19:24.275Z,1.00
2018-11-07T08:21:03.009Z,3.40
2018-11-07T08:22:40.414Z,3.40
2018-11-07T08:24:30.787Z,2.20
2018-11-07T08:26:12.598Z,3.20
2018-11-07T08:27:50.269Z,3.00
2018-11-07T08:29:26.903Z,3.60
2018-11-07T08:31:04.646Z,3.00
2018-11-07T08:32:47.902Z,4.40
2018-11-07T08:34:45.215Z,3.20
2018-11-07T08:36:24.766Z,3.20
2018-11-07T08:38:06.963Z,1.00
2018-11-07T08:39:46.216Z,1.80
2018-11-07T08:41:23.947Z,3.80
2018-11-07T08:44:47.208Z,2.40
2018-11-07T08:50:15.115Z,2.20
2018-11-07T08:51:55.389Z,4.00
2018-11-07T08:53:34.580Z,4.00
2018-11-07T08:55:16.479Z,2.80
2018-11-07T08:56:55.280Z,2.80
2018-11-07T08:58:34.116Z,3.60
2018-11-07T09:00:20.213Z,2.00
2018-11-07T09:01:58.563Z,1.80
2018-11-07T09:03:40.021Z,4.00
2018-11-07T09:05:23.705Z,2.40
2018-11-07T09:07:14.288Z,2.20
2018-11-07T09:08:54.024Z,4.00
2018-11-07T09:10:31.762Z,1.80
2018-11-07T09:12:10.367Z,2.40
2018-11-07T09:13:51.019Z,4.00
2018-11-07T09:17:45.099Z,1.40
2018-11-07T09:19:36.254Z,6.00
2018-11-07T09:21:15.308Z,1.40
2018-11-07T09:23:03.343Z,3.40
2018-11-07T09:24:39.593Z,3.00
2018-11-07T09:26:18.255Z,3.00
2018-11-07T09:27:55.030Z,3.20
2018-11-07T09:29:32.514Z,4.00
2018-11-07T09:31:13.225Z,4.00
2018-11-07T09:32:52.452Z,3.20
2018-11-07T09:34:35.955Z,3.40
2018-11-07T09:36:16.012Z,3.80
2018-11-07T09:37:53.805Z,3.00
2018-11-07T09:39:31.321Z,4.00
2018-11-07T09:41:18.550Z,3.00
2018-11-07T09:42:53.944Z,3.00
2018-11-07T09:44:31.183Z,3.20
2018-11-07T09:46:11.487Z,3.80
2018-11-07T09:47:48.482Z,4.20
2018-11-07T09:49:25.433Z,4.00
2018-11-07T09:51:10.473Z,1.00
2018-11-07T09:52:48.731Z,2.60
2018-11-07T09:54:32.837Z,3.00
2018-11-07T09:56:26.928Z,3.40
2018-11-07T09:58:03.301Z,3.00
2018-11-07T09:59:48.029Z,3.60
2018-11-07T10:01:29.275Z,3.00
2018-11-07T10:03:11.575Z,4.00
2018-11-07T10:04:48.260Z,3.80
2018-11-07T10:06:26.272Z,4.00
2018-11-07T10:08:13.197Z,3.00
2018-11-07T10:11:40.943Z,3.20
2018-11-07T10:13:20.453Z,4.00
2018-11-07T10:14:56.298Z,2.20
2018-11-07T10:16:31.845Z,3.00
2018-11-07T10:18:07.326Z,3.60
2018-11-07T10:19:43.068Z,3.40
2018-11-07T10:21:20.713Z,4.20
2018-11-07T10:22:56.413Z,4.20
2018-11-07T10:24:33.469Z,4.00
2018-11-07T10:26:08.555Z,3.00
2018-11-07T10:27:46.826Z,3.60
2018-11-07T10:29:24.127Z,3.80
2018-11-07T10:30:59.536Z,3.00
2018-11-07T10:32:37.118Z,3.40
2018-11-07T10:34:16.330Z,3.00
2018-11-07T10:35:54.334Z,2.80
2018-11-07T10:37:41.531Z,0.00
2018-11-07T10:39:16.516Z,1.00
2018-11-07T10:40:53.476Z,3.20
2018-11-07T10:42:28.716Z,3.00
2018-11-07T10:44:06.539Z,3.00
2018-11-07T10:45:43.520Z,5.20
2018-11-07T10:47:18.645Z,3.00
2018-11-07T10:48:53.928Z,0.00
2018-11-07T10:50:33.358Z,2.20
2018-11-07T10:52:08.801Z,2.80
2018-11-07T10:53:46.076Z,2.20
2018-11-07T10:55:23.039Z,1.60
2018-11-07T10:56:58.543Z,2.40
2018-11-07T10:58:34.636Z,2.20
2018-11-07T11:00:17.692Z,2.00
2018-11-07T11:01:59.362Z,1.80
2018-11-07T11:03:35.334Z,4.00
2018-11-07T11:05:11.414Z,1.80
2018-11-07T11:06:46.590Z,2.00
2018-11-07T11:08:22.362Z,1.00
2018-11-07T11:10:03.722Z,2.00
2018-11-07T11:11:40.528Z,1.00
2018-11-07T11:13:16.794Z,1.60
2018-11-07T11:14:53.529Z,1.00
2018-11-07T11:16:29.035Z,1.00
2018-11-07T11:18:04.451Z,2.00
2018-11-07T11:19:39.836Z,2.80
2018-11-07T11:21:16.964Z,1.00
2018-11-07T11:22:53.228Z,4.00
2018-11-07T11:24:28.454Z,1.00
2018-11-07T11:26:07.271Z,1.80
2018-11-07T11:27:50.423Z,1.00
2018-11-07T11:29:40.297Z,1.00
2018-11-07T11:31:23.630Z,0.20
2018-11-07T11:33:08.379Z,1.00
2018-11-07T11:36:53.953Z,0.80
2018-11-07T11:38:40.555Z,0.20
2018-11-07T11:40:17.441Z,1.00
2018-11-07T11:41:58.624Z,1.20
2018-11-07T11:43:40.869Z,1.00
2018-11-07T11:45:23.639Z,2.80
2018-11-07T11:47:08.296Z,2.00
2018-11-07T11:48:56.828Z,1.80
2018-11-07T11:50:41.384Z,1.40
2018-11-07T11:52:18.660Z,1.80
2018-11-07T11:53:59.711Z,1.80
2018-11-07T11:55:51.387Z,1.80
2018-11-07T11:57:30.745Z,1.00
2018-11-07T11:59:07.581Z,1.00
2018-11-07T12:00:46.760Z,2.00
2018-11-07T12:02:27.044Z,1.80
2018-11-07T12:04:14.512Z,1.60
2018-11-07T12:05:54.118Z,4.80
2018-11-07T12:07:36.573Z,1.40
2018-11-07T12:09:21.442Z,2.00
2018-11-07T12:10:59.152Z,1.00
2018-11-07T12:12:38.438Z,1.00
2018-11-07T12:14:42.595Z,1.80
2018-11-07T12:16:28.808Z,2.00
2018-11-07T12:18:08.230Z,1.60
2018-11-07T12:19:59.651Z,2.00
2018-11-07T12:21:41.114Z,2.00
2018-11-07T12:23:24.545Z,1.40
2018-11-07T12:25:05.176Z,2.00
2018-11-07T12:26:43.362Z,2.00
2018-11-07T12:28:25.311Z,0.00
2018-11-07T12:30:09.335Z,1.00
2018-11-07T12:31:45.535Z,3.20
2018-11-07T12:33:21.626Z,2.00
2018-11-07T12:35:02.633Z,2.00
2018-11-07T12:36:38.392Z,1.00
2018-11-07T12:38:20.991Z,1.00
2018-11-07T12:39:56.344Z,2.00
2018-11-07T12:41:36.329Z,2.00
2018-11-07T12:43:16.011Z,3.20
2018-11-07T12:44:53.370Z,2.80
2018-11-07T12:46:29.743Z,2.00
2018-11-07T12:48:06.325Z,1.20
2018-11-07T12:49:42.559Z,1.00
2018-11-07T12:51:21.644Z,1.80
2018-11-07T12:53:01.531Z,1.20
2018-11-07T12:56:20.806Z,1.40
2018-11-07T12:57:59.493Z,1.20
2018-11-07T12:59:40.957Z,2.00
2018-11-07T13:01:38.087Z,2.80
2018-11-07T13:05:16.158Z,3.00
2018-11-07T13:06:51.966Z,2.00
2018-11-07T13:08:30.259Z,2.00
2018-11-07T13:10:06.180Z,1.60
2018-11-07T13:11:42.982Z,2.00
2018-11-07T13:13:22.653Z,2.80
2018-11-07T13:15:00.445Z,2.00
2018-11-07T13:16:40.380Z,2.80
2018-11-07T13:18:19.255Z,1.80
2018-11-07T13:19:57.780Z,1.00
2018-11-07T13:21:34.304Z,2.00
2018-11-07T13:23:12.387Z,2.00
2018-11-07T13:24:48.496Z,1.80
2018-11-07T13:26:25.755Z,1.40
2018-11-07T13:28:01.481Z,1.20
2018-11-07T13:29:39.701Z,1.00
2018-11-07T13:31:15.515Z,2.00
2018-11-07T13:32:53.132Z,0.80
2018-11-07T13:34:32.154Z,1.00
2018-11-07T13:36:12.067Z,0.00
2018-11-07T13:37:49.061Z,1.20
2018-11-07T13:39:25.905Z,1.80
2018-11-07T13:41:02.961Z,1.00
2018-11-07T13:42:39.386Z,0.80
2018-11-07T13:44:30.160Z,1.20
2018-11-07T13:46:15.698Z,1.00
2018-11-07T13:47:55.611Z,1.00
2018-11-07T13:49:30.863Z,1.60
2018-11-07T13:51:10.189Z,2.00
2018-11-07T13:52:48.385Z,1.20
2018-11-07T13:54:25.384Z,1.00
2018-11-07T13:56:00.591Z,1.00
2018-11-07T13:57:37.379Z,1.20
2018-11-07T13:59:14.696Z,1.00
2018-11-07T14:00:52.842Z,1.00
2018-11-07T14:06:42.143Z,1.00
2018-11-07T14:08:17.325Z,1.00
2018-11-07T14:09:57.195Z,2.00
2018-11-07T14:11:32.756Z,0.00
2018-11-07T14:13:10.802Z,2.00
2018-11-07T14:14:46.646Z,2.00
2018-11-07T14:16:23.321Z,0.00
2018-11-07T14:17:58.467Z,1.00
2018-11-07T14:19:33.975Z,1.00
2018-11-07T14:21:26.752Z,2.00
2018-11-07T14:23:03.800Z,1.00
2018-11-07T14:24:43.153Z,1.00
2018-11-07T14:26:21.119Z,1.00
2018-11-07T14:27:58.291Z,1.00
2018-11-07T14:29:39.461Z,1.00
2018-11-07T14:31:16.404Z,0.00
2018-11-07T14:33:03.672Z,0.20
2018-11-07T14:34:40.767Z,0.80
2018-11-07T14:38:03.155Z,2.00
2018-11-07T14:41:26.358Z,0.60
2018-11-07T14:43:01.958Z,2.00
2018-11-07T14:44:39.094Z,2.80
2018-11-07T14:46:17.621Z,1.60
2018-11-07T14:47:54.038Z,2.00
2018-11-07T14:49:29.312Z,0.00
2018-11-07T14:51:05.690Z,6.20
2018-11-07T14:52:45.305Z,5.00
2018-11-07T14:54:23.802Z,8.20
2018-11-07T14:56:04.104Z,1.40
2018-11-07T14:57:40.803Z,1.00
2018-11-07T14:59:16.221Z,1.80
2018-11-07T15:00:54.547Z,2.20
2018-11-07T15:02:31.302Z,3.80
2018-11-07T15:04:09.118Z,2.00
2018-11-07T15:05:49.654Z,1.00
2018-11-07T15:07:32.367Z,0.60
2018-11-07T15:09:11.893Z,1.00
2018-11-07T15:11:03.310Z,1.00
2018-11-07T15:12:44.483Z,2.40
2018-11-07T15:16:14.638Z,1.00
2018-11-07T15:17:54.393Z,1.00
2018-11-07T15:19:33.442Z,3.80
2018-11-07T15:21:10.383Z,4.00
2018-11-07T15:22:57.138Z,3.00
2018-11-07T15:24:41.345Z,6.20
2018-11-07T15:26:29.722Z,3.20
2018-11-07T15:28:07.072Z,3.00
2018-11-07T15:29:44.783Z,4.60
2018-11-07T15:31:39.355Z,2.20
2018-11-07T15:33:34.190Z,3.00
2018-11-07T15:35:30.597Z,3.00
2018-11-07T15:37:05.677Z,3.20
2018-11-07T15:38:43.579Z,3.20
2018-11-07T15:40:20.232Z,1.80
2018-11-07T15:41:57.529Z,3.00
2018-11-07T15:46:13.446Z,3.20
2018-11-07T15:48:29.061Z,9.60
2018-11-07T15:50:09.488Z,3.40
2018-11-07T15:51:46.689Z,3.40
2018-11-07T15:53:22.214Z,4.80
2018-11-07T15:55:07.184Z,4.80
2018-11-07T15:56:45.312Z,7.00
2018-11-07T15:58:34.334Z,6.00
2018-11-07T16:00:16.485Z,3.00
2018-11-07T16:02:01.989Z,4.00
2018-11-07T16:03:42.756Z,4.00
2018-11-07T16:05:19.324Z,4.40
2018-11-07T16:06:56.476Z,3.60
2018-11-07T16:08:33.272Z,3.80
2018-11-07T16:10:18.176Z,3.00
2018-11-07T16:11:54.378Z,3.00
2018-11-07T16:13:32.126Z,4.00
2018-11-07T16:15:17.536Z,3.00
2018-11-07T16:17:03.456Z,1.00
2018-11-07T16:18:41.351Z,6.20
2018-11-07T16:20:20.221Z,4.20
2018-11-07T16:21:56.029Z,13.40
2018-11-07T16:23:37.827Z,6.60
2018-11-07T16:25:14.423Z,6.40
2018-11-07T16:26:53.367Z,3.00
2018-11-07T16:28:44.371Z,4.00
2018-11-07T16:30:41.243Z,4.00
2018-11-07T16:32:20.227Z,3.20
2018-11-07T16:33:58.939Z,3.00
2018-11-07T16:35:51.751Z,6.00
2018-11-07T16:37:53.304Z,3.20
2018-11-07T16:39:46.493Z,5.20
2018-11-07T16:41:48.151Z,6.00
2018-11-07T16:43:32.824Z,4.00
2018-11-07T16:45:20.117Z,4.80
2018-11-07T16:47:07.479Z,4.00
2018-11-07T16:48:52.127Z,4.80
2018-11-07T16:50:28.289Z,7.00
2018-11-07T16:52:06.746Z,7.20
2018-11-07T16:54:16.324Z,9.00
2018-11-07T16:56:10.581Z,4.20
2018-11-07T16:57:51.806Z,8.80
2018-11-07T16:59:36.203Z,10.00
2018-11-07T17:01:16.706Z,9.40
2018-11-07T17:03:11.706Z,7.00
2018-11-07T17:04:58.572Z,9.60
2018-11-07T17:06:45.662Z,9.00
2018-11-07T17:08:26.708Z,13.00
2018-11-07T17:10:18.410Z,14.20
2018-11-07T17:12:02.743Z,7.40
2018-11-07T17:13:46.621Z,14.20
2018-11-07T17:15:28.819Z,10.40
2018-11-07T17:17:08.648Z,11.00
2018-11-07T17:18:46.805Z,10.80
2018-11-07T17:20:35.885Z,17.40
2018-11-07T17:22:18.560Z,14.60
2018-11-07T17:24:06.050Z,12.00
2018-11-07T17:25:49.029Z,10.40
2018-11-07T17:27:29.647Z,11.20
2018-11-07T17:29:18.059Z,10.00
2018-11-07T17:31:03.168Z,6.00
2018-11-07T17:32:40.281Z,12.00
2018-11-07T17:34:29.337Z,6.00
2018-11-07T17:36:07.656Z,6.00
2018-11-07T17:37:46.009Z,7.40
2018-11-07T17:39:24.633Z,6.40
2018-11-07T17:41:00.965Z,9.80
2018-11-07T17:42:37.635Z,13.20
2018-11-07T17:44:17.938Z,7.80
2018-11-07T17:45:55.683Z,12.80
2018-11-07T17:47:33.541Z,12.00
2018-11-07T17:49:24.622Z,9.40
2018-11-07T17:51:16.712Z,8.20
2018-11-07T17:55:15.901Z,11.60
2018-11-07T17:56:58.662Z,7.00
2018-11-07T17:58:38.664Z,13.00
2018-11-07T18:02:12.691Z,17.60
2018-11-07T18:03:48.093Z,16.60
2018-11-07T18:05:26.511Z,12.00
2018-11-07T18:07:02.253Z,9.40
2018-11-07T18:08:40.011Z,9.20
2018-11-07T18:10:16.751Z,9.00
2018-11-07T18:11:55.211Z,15.00
2018-11-07T18:13:32.279Z,11.00
2018-11-07T18:15:10.331Z,10.40
2018-11-07T18:16:48.873Z,7.40
2018-11-07T18:18:32.824Z,3.00
2018-11-07T18:20:16.367Z,6.00
2018-11-07T18:21:54.391Z,8.20
2018-11-07T18:23:35.136Z,7.00
2018-11-07T18:25:16.397Z,9.60
2018-11-07T18:26:57.137Z,8.00
2018-11-07T18:28:36.521Z,6.80
2018-11-07T18:30:17.340Z,6.20
2018-11-07T18:31:56.716Z,7.00
2018-11-07T18:33:39.194Z,10.80
2018-11-07T18:35:21.713Z,12.00
2018-11-07T18:37:01.166Z,8.60
2018-11-07T18:38:41.032Z,6.60
2018-11-07T18:40:20.886Z,6.20
2018-11-07T18:42:06.486Z,7.80
2018-11-07T18:43:44.885Z,3.80
2018-11-07T18:45:26.288Z,10.00
2018-11-07T18:47:03.719Z,6.00
2018-11-07T18:48:40.153Z,4.40
2018-11-07T18:50:20.852Z,9.40
2018-11-07T18:51:59.662Z,9.00
2018-11-07T18:53:35.962Z,8.20
2018-11-07T18:55:15.437Z,9.80
2018-11-07T18:56:53.868Z,9.40
2018-11-07T18:58:29.308Z,8.60
2018-11-07T19:00:14.120Z,8.20
2018-11-07T19:01:53.722Z,7.80
2018-11-07T19:03:32.814Z,7.80
2018-11-07T19:05:15.286Z,12.80
2018-11-07T19:06:53.136Z,10.00
2018-11-07T19:08:31.111Z,10.00
2018-11-07T19:10:10.831Z,9.00
2018-11-07T19:12:21.200Z,8.20
2018-11-07T19:14:04.359Z,7.80
2018-11-07T19:15:49.096Z,9.80
2018-11-07T19:17:47.213Z,8.60
2018-11-07T19:19:33.740Z,4.80
2018-11-07T19:21:15.263Z,6.80
2018-11-07T19:22:52.664Z,8.60
2018-11-07T19:24:33.263Z,9.20
2018-11-07T19:26:18.930Z,7.40
2018-11-07T19:27:56.271Z,7.40
2018-11-07T19:29:35.982Z,6.60
2018-11-07T19:31:29.767Z,6.80
2018-11-07T19:33:06.481Z,7.00
2018-11-07T19:34:55.320Z,9.00
2018-11-07T19:36:39.563Z,1.00
2018-11-07T19:38:32.506Z,7.00
2018-11-07T19:40:19.620Z,6.20
2018-11-07T19:41:58.866Z,8.20
2018-11-07T19:43:48.186Z,8.40
2018-11-07T19:45:35.525Z,7.00
2018-11-07T19:47:12.885Z,8.60
2018-11-07T19:48:57.420Z,7.80
2018-11-07T19:50:37.832Z,10.40
2018-11-07T19:52:17.386Z,5.60
2018-11-07T19:53:59.245Z,7.00
2018-11-07T19:55:42.722Z,9.00
2018-11-07T19:57:22.345Z,10.00
2018-11-07T19:59:05.464Z,9.00
2018-11-07T20:00:43.598Z,6.80
2018-11-07T20:02:24.724Z,6.80
2018-11-07T20:04:07.584Z,10.80
2018-11-07T20:05:43.825Z,7.00
2018-11-07T20:07:23.593Z,9.80
2018-11-07T20:09:22.446Z,7.00
2018-11-07T20:11:11.271Z,7.00
2018-11-07T20:12:48.736Z,8.80
2018-11-07T20:16:22.297Z,7.00
2018-11-07T20:18:02.066Z,9.60
2018-11-07T20:19:44.276Z,12.80
2018-11-07T20:21:23.454Z,9.20
2018-11-07T20:23:00.536Z,7.00
2018-11-07T20:24:38.308Z,6.80
2018-11-07T20:26:18.065Z,5.60
2018-11-07T20:27:57.343Z,9.40
2018-11-07T20:29:35.213Z,5.60
2018-11-07T20:31:17.450Z,8.20
2018-11-07T20:32:57.440Z,8.20
2018-11-07T20:34:37.805Z,6.00
2018-11-07T20:36:24.306Z,7.00
2018-11-07T20:38:25.809Z,3.40
2018-11-07T20:40:09.882Z,4.00
2018-11-07T20:41:53.019Z,6.80
2018-11-07T20:43:31.654Z,7.40
2018-11-07T20:45:17.277Z,7.00
2018-11-07T20:47:16.670Z,7.40
2018-11-07T20:49:05.258Z,7.00
2018-11-07T20:50:53.745Z,7.00
2018-11-07T20:52:31.091Z,9.40
2018-11-07T20:54:13.521Z,5.20
2018-11-07T20:55:49.260Z,7.00
2018-11-07T20:57:26.941Z,6.60
2018-11-07T20:59:07.362Z,7.00
2018-11-07T21:00:43.524Z,9.00
2018-11-07T21:02:22.683Z,9.00
2018-11-07T21:04:00.399Z,8.60
2018-11-07T21:05:40.934Z,6.60
2018-11-07T21:07:16.843Z,9.00
2018-11-07T21:08:54.842Z,6.20
2018-11-07T21:10:31.422Z,8.60
2018-11-07T21:12:15.887Z,7.00
2018-11-07T21:14:15.824Z,6.00
2018-11-07T21:16:02.507Z,6.60
2018-11-07T21:17:53.324Z,5.60
2018-11-07T21:21:43.573Z,6.00
2018-11-07T21:23:29.824Z,6.00
2018-11-07T21:25:28.946Z,7.40
2018-11-07T21:27:28.987Z,6.00
2018-11-07T21:29:17.735Z,3.60
2018-11-07T21:31:15.654Z,6.60
2018-11-07T21:33:04.696Z,6.40
2018-11-07T21:34:53.746Z,6.00
2018-11-07T21:36:40.577Z,9.20
2018-11-07T21:38:31.021Z,9.00
2018-11-07T21:40:40.762Z,7.00
2018-11-07T21:42:45.561Z,2.20
2018-11-07T21:44:33.500Z,3.80
2018-11-07T21:48:16.392Z,6.00
2018-11-07T21:50:11.261Z,6.80
2018-11-07T21:56:39.339Z,6.20
2018-11-07T22:00:35.899Z,9.60
2018-11-07T22:02:19.247Z,11.60
2018-11-07T22:04:00.785Z,6.00
2018-11-07T22:05:37.862Z,6.20
2018-11-07T22:07:16.474Z,7.00
2018-11-07T22:08:53.444Z,8.60
2018-11-07T22:10:36.854Z,9.00
2018-11-07T22:12:25.099Z,6.20
2018-11-07T22:14:06.998Z,14.00
2018-11-07T22:15:47.478Z,6.40
2018-11-07T22:17:28.590Z,3.60
2018-11-07T22:19:06.500Z,9.00
2018-11-07T22:22:30.848Z,7.20
2018-11-07T22:24:11.560Z,6.80
2018-11-07T22:25:59.487Z,9.00
2018-11-07T22:27:37.598Z,8.20
2018-11-07T22:29:25.053Z,9.60
2018-11-07T22:31:03.180Z,7.00
2018-11-07T22:32:41.694Z,6.20
2018-11-07T22:34:24.900Z,7.40
2018-11-07T22:36:12.335Z,7.00
2018-11-07T22:37:56.360Z,6.00
2018-11-07T22:41:55.306Z,7.00
2018-11-07T22:43:40.498Z,7.00
2018-11-07T22:45:21.567Z,6.80
2018-11-07T22:47:03.126Z,4.00
2018-11-07T22:48:56.756Z,7.00
2018-11-07T22:50:41.474Z,7.00
2018-11-07T22:52:20.004Z,1.60
2018-11-07T22:54:01.358Z,7.00
2018-11-07T22:55:39.152Z,3.00